createdAt,value
2022-11-26T00:01:23.249Z,60.53
2022-11-26T00:03:50.354Z,60.60
2022-11-26T00:06:51.891Z,60.82
2022-11-26T00:09:23.597Z,60.69
2022-11-26T00:11:50.825Z,60.45
2022-11-26T00:14:18.219Z,60.34
2022-11-26T00:16:45.710Z,60.41
2022-11-26T00:19:13.037Z,60.45
2022-11-26T00:21:42.815Z,60.29
2022-11-26T00:24:29.051Z,60.20
2022-11-26T00:26:59.895Z,60.18
2022-11-26T00:29:27.052Z,60.08
2022-11-26T00:31:54.386Z,59.63
2022-11-26T00:34:21.688Z,59.60
2022-11-26T00:36:48.960Z,59.50
2022-11-26T00:39:23.788Z,59.82
2022-11-26T00:41:53.257Z,59.93
2022-11-26T00:44:24.659Z,59.84
2022-11-26T00:46:52.833Z,59.93
2022-11-26T00:49:20.240Z,59.91
2022-11-26T00:51:48.395Z,59.74
2022-11-26T00:54:19.403Z,59.71
2022-11-26T00:56:49.179Z,60.06
2022-11-26T00:59:22.188Z,59.77
2022-11-26T01:01:50.412Z,59.96
2022-11-26T01:04:17.724Z,59.59
2022-11-26T01:06:46.422Z,59.75
2022-11-26T01:09:22.894Z,59.94
2022-11-26T01:11:54.043Z,59.63
2022-11-26T01:14:23.152Z,59.93
2022-11-26T01:16:52.951Z,59.77
2022-11-26T01:19:20.157Z,59.81
2022-11-26T01:21:47.423Z,59.85
2022-11-26T01:24:14.667Z,59.91
2022-11-26T01:26:44.403Z,59.88
2022-11-26T01:29:20.974Z,59.94
2022-11-26T01:31:48.594Z,60.06
2022-11-26T01:34:16.004Z,59.72
2022-11-26T01:36:43.473Z,59.73
2022-11-26T01:39:19.152Z,59.48
2022-11-26T01:42:01.554Z,59.67
2022-11-26T01:44:33.103Z,59.87
2022-11-26T01:47:01.645Z,59.52
2022-11-26T01:49:34.907Z,59.62
2022-11-26T01:52:21.331Z,59.68
2022-11-26T01:54:51.011Z,59.37
2022-11-26T01:57:28.778Z,59.64
2022-11-26T02:00:00.948Z,59.21
2022-11-26T02:02:30.207Z,59.24
2022-11-26T02:05:24.161Z,59.10
2022-11-26T02:07:53.510Z,58.92
2022-11-26T02:10:20.839Z,59.34
2022-11-26T02:12:49.136Z,59.08
2022-11-26T02:15:16.671Z,59.31
2022-11-26T02:18:02.283Z,59.20
2022-11-26T02:20:46.121Z,59.26
2022-11-26T02:24:00.966Z,59.18
2022-11-26T02:26:55.306Z,58.93
2022-11-26T02:29:59.721Z,59.21
2022-11-26T02:32:53.728Z,59.14
2022-11-26T02:35:54.531Z,59.02
2022-11-26T02:38:27.218Z,59.07
2022-11-26T02:40:54.674Z,58.92
2022-11-26T02:43:23.659Z,58.93
2022-11-26T02:45:59.002Z,59.01
2022-11-26T02:48:38.853Z,59.00
2022-11-26T02:51:33.474Z,58.82
2022-11-26T02:54:02.652Z,58.87
2022-11-26T02:56:30.246Z,58.94
2022-11-26T02:58:58.140Z,58.76
2022-11-26T03:01:38.536Z,58.71
2022-11-26T03:04:19.667Z,58.87
2022-11-26T03:06:48.153Z,58.91
2022-11-26T03:09:18.836Z,58.69
2022-11-26T03:11:45.990Z,58.56
2022-11-26T03:14:13.327Z,58.43
2022-11-26T03:16:40.495Z,58.36
2022-11-26T03:19:07.650Z,58.35
2022-11-26T03:21:35.115Z,58.31
2022-11-26T03:24:02.250Z,58.44
2022-11-26T03:26:29.422Z,58.51
2022-11-26T03:28:56.560Z,58.05
2022-11-26T03:31:23.788Z,58.16
2022-11-26T03:33:50.968Z,58.57
2022-11-26T03:36:18.455Z,58.60
2022-11-26T03:38:45.612Z,58.53
2022-11-26T03:41:14.538Z,58.73
2022-11-26T03:43:41.652Z,58.32
2022-11-26T03:46:09.094Z,58.31
2022-11-26T03:48:36.382Z,58.50
2022-11-26T03:51:03.884Z,58.83
2022-11-26T03:53:31.410Z,58.69
2022-11-26T03:55:58.679Z,58.57
2022-11-26T03:58:26.204Z,58.62
2022-11-26T04:00:57.069Z,58.35
2022-11-26T04:03:26.558Z,58.06
2022-11-26T04:05:54.018Z,58.42
2022-11-26T04:08:21.190Z,58.45
2022-11-26T04:10:48.284Z,58.54
2022-11-26T04:13:15.427Z,58.36
2022-11-26T04:15:42.666Z,58.71
2022-11-26T04:18:10.016Z,58.61
2022-11-26T04:20:37.293Z,58.44
2022-11-26T04:23:04.469Z,58.19
2022-11-26T04:25:31.753Z,58.62
2022-11-26T04:27:59.285Z,58.18
2022-11-26T04:30:29.838Z,58.26
2022-11-26T04:32:57.361Z,58.46
2022-11-26T04:35:24.785Z,58.45
2022-11-26T04:37:51.980Z,58.47
2022-11-26T04:40:19.268Z,58.82
2022-11-26T04:42:46.480Z,58.85
2022-11-26T04:45:13.633Z,58.80
2022-11-26T04:47:43.124Z,58.59
2022-11-26T04:50:11.503Z,58.55
2022-11-26T04:52:38.672Z,58.58
2022-11-26T04:55:06.319Z,58.34
2022-11-26T04:57:33.572Z,58.48
2022-11-26T05:00:00.700Z,58.17
2022-11-26T05:02:27.977Z,58.16
2022-11-26T05:04:55.182Z,58.24
2022-11-26T05:07:22.417Z,58.31
2022-11-26T05:09:49.883Z,58.25
2022-11-26T05:12:17.058Z,58.46
2022-11-26T05:14:44.199Z,58.39
2022-11-26T05:17:11.328Z,58.28
2022-11-26T05:19:38.475Z,58.03
2022-11-26T05:22:16.055Z,58.25
2022-11-26T05:24:43.244Z,58.12
2022-11-26T05:27:10.399Z,58.37
2022-11-26T05:29:37.588Z,58.30
2022-11-26T05:32:05.293Z,58.30
2022-11-26T05:34:32.609Z,58.27
2022-11-26T05:36:59.751Z,57.97
2022-11-26T05:39:37.264Z,58.03
2022-11-26T05:42:09.143Z,58.25
2022-11-26T05:44:38.206Z,58.27
2022-11-26T05:47:05.626Z,58.08
2022-11-26T05:49:32.940Z,58.38
2022-11-26T05:52:00.287Z,58.01
2022-11-26T05:54:27.990Z,58.33
2022-11-26T05:56:59.910Z,58.38
2022-11-26T05:59:28.267Z,58.49
2022-11-26T06:01:55.545Z,58.66
2022-11-26T06:04:23.038Z,58.30
2022-11-26T06:06:50.311Z,58.33
2022-11-26T06:09:17.559Z,57.93
2022-11-26T06:11:44.748Z,57.77
2022-11-26T06:14:11.963Z,57.85
2022-11-26T06:16:39.700Z,57.98
2022-11-26T06:19:06.894Z,57.89
2022-11-26T06:21:34.540Z,58.19
2022-11-26T06:24:02.074Z,58.45
2022-11-26T06:26:29.269Z,58.00
2022-11-26T06:28:56.418Z,58.00
2022-11-26T06:31:23.555Z,57.98
2022-11-26T06:33:55.296Z,58.26
2022-11-26T06:36:23.743Z,58.56
2022-11-26T06:38:51.054Z,58.58
2022-11-26T06:41:18.270Z,58.96
2022-11-26T06:43:45.383Z,58.75
2022-11-26T06:46:15.705Z,58.55
2022-11-26T06:48:42.916Z,58.26
2022-11-26T06:51:16.643Z,58.64
2022-11-26T06:53:43.874Z,58.41
2022-11-26T06:56:18.532Z,58.35
2022-11-26T06:58:48.976Z,58.38
2022-11-26T07:01:23.748Z,58.01
2022-11-26T07:03:52.126Z,58.37
2022-11-26T07:06:26.506Z,58.45
2022-11-26T07:08:57.110Z,58.12
2022-11-26T07:11:26.893Z,58.28
2022-11-26T07:13:54.676Z,58.65
2022-11-26T07:16:22.095Z,58.59
2022-11-26T07:19:02.241Z,58.38
2022-11-26T07:21:31.092Z,58.42
2022-11-26T07:23:59.016Z,58.32
2022-11-26T07:26:26.204Z,58.76
2022-11-26T07:28:54.241Z,58.75
2022-11-26T07:31:23.381Z,58.45
2022-11-26T07:33:51.749Z,58.53
2022-11-26T07:36:26.024Z,58.73
2022-11-26T07:39:01.871Z,58.86
2022-11-26T07:41:30.295Z,58.87
2022-11-26T07:43:57.612Z,58.96
2022-11-26T07:46:26.648Z,58.83
2022-11-26T07:48:56.373Z,58.77
2022-11-26T07:51:36.413Z,58.68
2022-11-26T07:54:07.677Z,58.57
2022-11-26T07:56:37.011Z,58.53
2022-11-26T07:59:05.681Z,58.52
2022-11-26T08:01:33.581Z,58.42
2022-11-26T08:04:07.527Z,58.51
2022-11-26T08:06:34.949Z,58.58
2022-11-26T08:09:04.562Z,58.66
2022-11-26T08:11:34.014Z,58.81
2022-11-26T08:14:09.811Z,58.80
2022-11-26T08:16:37.222Z,58.59
2022-11-26T08:19:08.136Z,58.69
2022-11-26T08:21:35.574Z,58.66
2022-11-26T08:24:03.049Z,58.86
2022-11-26T08:26:35.911Z,58.40
2022-11-26T08:29:06.057Z,58.47
2022-11-26T08:31:34.266Z,58.51
2022-11-26T08:34:03.177Z,58.45
2022-11-26T08:36:31.895Z,58.52
2022-11-26T08:39:00.794Z,58.68
2022-11-26T08:41:28.478Z,58.40
2022-11-26T08:44:11.407Z,58.78
2022-11-26T08:46:41.682Z,58.46
2022-11-26T08:49:12.977Z,59.07
2022-11-26T08:51:40.344Z,59.03
2022-11-26T08:54:07.898Z,58.48
2022-11-26T08:56:35.396Z,58.47
2022-11-26T08:59:03.705Z,58.52
2022-11-26T09:01:33.720Z,58.56
2022-11-26T09:04:03.011Z,58.93
2022-11-26T09:06:32.657Z,58.62
2022-11-26T09:09:01.847Z,58.73
2022-11-26T09:11:29.695Z,58.60
2022-11-26T09:13:58.314Z,58.72
2022-11-26T09:16:26.397Z,58.67
2022-11-26T09:18:54.206Z,59.03
2022-11-26T09:21:22.490Z,59.07
2022-11-26T09:23:49.721Z,58.87
2022-11-26T09:26:17.089Z,59.10
2022-11-26T09:28:44.246Z,59.18
2022-11-26T09:31:11.407Z,59.56
2022-11-26T09:33:38.624Z,59.59
2022-11-26T09:36:08.475Z,59.94
2022-11-26T09:38:36.778Z,59.90
2022-11-26T09:42:00.656Z,60.41
2022-11-26T09:45:04.502Z,59.94
2022-11-26T09:47:48.591Z,59.35
2022-11-26T09:50:15.756Z,58.95
2022-11-26T09:53:19.414Z,58.65
2022-11-26T09:55:52.563Z,58.77
2022-11-26T09:58:26.628Z,58.73
2022-11-26T10:00:58.234Z,58.75
2022-11-26T10:03:35.613Z,58.77
2022-11-26T10:06:26.688Z,58.83
2022-11-26T10:09:35.484Z,58.32
2022-11-26T10:12:45.944Z,58.10
2022-11-26T10:15:35.803Z,58.02
2022-11-26T10:18:33.058Z,58.19
2022-11-26T10:22:11.331Z,57.51
2022-11-26T10:24:42.275Z,57.13
2022-11-26T10:27:19.212Z,57.04
2022-11-26T10:29:58.974Z,57.09
2022-11-26T10:32:35.120Z,56.95
2022-11-26T10:35:02.195Z,56.69
2022-11-26T10:37:29.959Z,56.51
2022-11-26T10:40:17.331Z,56.25
2022-11-26T10:43:03.590Z,56.35
2022-11-26T10:45:51.053Z,56.57
2022-11-26T10:48:24.904Z,57.04
2022-11-26T10:51:11.811Z,56.23
2022-11-26T10:53:56.883Z,56.02
2022-11-26T10:56:40.925Z,55.38
2022-11-26T10:59:30.427Z,55.53
2022-11-26T11:02:31.934Z,55.06
2022-11-26T11:05:07.775Z,55.16
2022-11-26T11:07:41.156Z,54.91
2022-11-26T11:10:19.256Z,54.66
2022-11-26T11:13:12.007Z,54.63
2022-11-26T11:15:41.258Z,54.47
2022-11-26T11:18:20.620Z,53.92
2022-11-26T11:21:01.962Z,53.59
2022-11-26T11:24:07.824Z,53.82
2022-11-26T11:26:26.575Z,53.38
2022-11-26T11:28:55.850Z,53.47
2022-11-26T11:31:26.674Z,53.12
2022-11-26T11:34:19.707Z,52.52
2022-11-26T11:37:06.301Z,51.65
2022-11-26T11:39:35.469Z,52.79
2022-11-26T11:42:19.555Z,53.60
2022-11-26T11:44:51.275Z,51.97
2022-11-26T11:47:34.852Z,51.16
2022-11-26T11:50:28.410Z,50.37
2022-11-26T11:53:23.308Z,50.46
2022-11-26T11:56:13.406Z,50.31
2022-11-26T11:59:16.193Z,50.43
2022-11-26T12:02:14.115Z,50.78
2022-11-26T12:05:01.491Z,51.30
2022-11-26T12:07:40.949Z,51.69
2022-11-26T12:10:37.008Z,51.72
2022-11-26T12:13:10.114Z,52.99
2022-11-26T12:15:43.524Z,53.27
2022-11-26T12:18:39.942Z,52.97
2022-11-26T12:21:17.224Z,53.27
2022-11-26T12:24:06.634Z,53.13
2022-11-26T12:26:45.350Z,53.01
2022-11-26T12:29:25.901Z,52.97
2022-11-26T12:32:00.212Z,52.66
2022-11-26T12:34:43.769Z,52.81
2022-11-26T12:37:26.860Z,53.10
2022-11-26T12:40:10.206Z,53.17
2022-11-26T12:42:54.970Z,53.27
2022-11-26T12:45:48.670Z,53.09
2022-11-26T12:48:40.379Z,53.42
2022-11-26T12:51:36.239Z,53.96
2022-11-26T12:54:24.333Z,53.56
2022-11-26T12:57:05.074Z,53.62
2022-11-26T12:59:58.871Z,53.72
2022-11-26T13:02:34.392Z,53.85
2022-11-26T13:05:01.819Z,54.03
2022-11-26T13:07:58.322Z,54.22
2022-11-26T13:10:52.509Z,53.69
2022-11-26T13:14:09.060Z,53.81
2022-11-26T13:17:18.306Z,52.98
2022-11-26T13:20:13.040Z,53.49
2022-11-26T13:23:03.780Z,53.73
2022-11-26T13:26:18.982Z,53.63
2022-11-26T13:28:48.801Z,54.25
2022-11-26T13:31:40.632Z,54.44
2022-11-26T13:34:35.509Z,54.33
2022-11-26T13:37:32.833Z,53.96
2022-11-26T13:40:45.418Z,54.19
2022-11-26T13:43:34.318Z,54.00
2022-11-26T13:46:41.445Z,53.95
2022-11-26T13:49:43.861Z,54.32
2022-11-26T13:52:26.466Z,54.19
2022-11-26T13:55:30.288Z,54.51
2022-11-26T13:58:02.858Z,54.41
2022-11-26T14:00:35.677Z,54.75
2022-11-26T14:03:03.709Z,54.68
2022-11-26T14:05:49.429Z,54.68
2022-11-26T14:08:42.788Z,54.50
2022-11-26T14:11:11.788Z,54.56
2022-11-26T14:13:39.731Z,54.21
2022-11-26T14:16:13.581Z,54.03
2022-11-26T14:18:50.694Z,54.16
2022-11-26T14:21:25.419Z,53.82
2022-11-26T14:24:03.122Z,53.70
2022-11-26T14:26:42.117Z,53.48
2022-11-26T14:29:09.696Z,53.21
2022-11-26T14:31:54.375Z,53.48
2022-11-26T14:34:39.123Z,53.41
2022-11-26T14:37:20.099Z,53.55
2022-11-26T14:40:03.253Z,53.28
2022-11-26T14:42:31.069Z,53.60
2022-11-26T14:45:15.194Z,53.63
2022-11-26T14:47:47.431Z,53.63
2022-11-26T14:50:19.950Z,53.91
2022-11-26T14:53:01.533Z,53.98
2022-11-26T14:55:31.680Z,54.42
2022-11-26T14:58:25.025Z,54.16
2022-11-26T15:01:16.256Z,54.16
2022-11-26T15:03:54.938Z,53.55
2022-11-26T15:06:45.201Z,53.71
2022-11-26T15:09:15.362Z,53.72
2022-11-26T15:11:59.674Z,53.86
2022-11-26T15:14:57.422Z,53.62
2022-11-26T15:17:29.905Z,53.99
2022-11-26T15:20:04.084Z,53.80
2022-11-26T15:22:43.101Z,53.61
2022-11-26T15:25:32.275Z,53.81
2022-11-26T15:28:06.244Z,53.93
2022-11-26T15:30:38.546Z,54.17
2022-11-26T15:33:08.814Z,54.15
2022-11-26T15:35:37.263Z,53.80
2022-11-26T15:38:20.634Z,54.22
2022-11-26T15:40:58.226Z,54.08
2022-11-26T15:43:36.765Z,54.21
2022-11-26T15:46:26.815Z,54.02
2022-11-26T15:49:02.570Z,54.37
2022-11-26T15:51:40.815Z,54.14
2022-11-26T15:55:04.602Z,53.86
2022-11-26T15:57:35.085Z,54.47
2022-11-26T16:00:28.636Z,54.71
2022-11-26T16:02:55.897Z,55.38
2022-11-26T16:05:38.513Z,54.80
2022-11-26T16:08:26.629Z,54.56
2022-11-26T16:11:05.802Z,54.80
2022-11-26T16:13:35.765Z,54.84
2022-11-26T16:16:23.775Z,54.92
2022-11-26T16:19:01.821Z,54.96
2022-11-26T16:21:34.380Z,54.81
2022-11-26T16:24:23.190Z,54.42
2022-11-26T16:27:02.612Z,54.57
2022-11-26T16:29:32.340Z,54.95
2022-11-26T16:31:59.691Z,54.95
2022-11-26T16:34:28.386Z,54.57
2022-11-26T16:37:22.433Z,54.55
2022-11-26T16:39:53.266Z,54.22
2022-11-26T16:42:23.622Z,55.11
2022-11-26T16:44:51.112Z,55.00
2022-11-26T16:47:34.295Z,54.96
2022-11-26T16:50:01.752Z,54.94
2022-11-26T16:52:29.156Z,55.13
2022-11-26T16:54:56.304Z,55.02
2022-11-26T16:57:28.083Z,54.66
2022-11-26T17:00:06.075Z,54.53
2022-11-26T17:02:33.675Z,54.77
2022-11-26T17:05:02.346Z,54.83
2022-11-26T17:07:37.989Z,54.79
2022-11-26T17:10:06.654Z,54.48
2022-11-26T17:12:33.835Z,54.41
2022-11-26T17:15:01.220Z,54.72
2022-11-26T17:17:30.174Z,54.53
2022-11-26T17:19:58.777Z,54.31
2022-11-26T17:22:26.058Z,54.69
2022-11-26T17:24:53.432Z,54.43
2022-11-26T17:27:22.131Z,54.74
2022-11-26T17:29:49.890Z,54.86
2022-11-26T17:32:19.532Z,55.12
2022-11-26T17:34:47.573Z,54.79
2022-11-26T17:37:22.893Z,54.98
2022-11-26T17:39:50.313Z,55.02
2022-11-26T17:42:17.675Z,54.95
2022-11-26T17:44:44.839Z,54.70
2022-11-26T17:47:25.576Z,55.19
2022-11-26T17:49:54.584Z,55.01
2022-11-26T17:52:21.861Z,54.93
2022-11-26T17:54:49.116Z,55.39
2022-11-26T17:57:17.313Z,55.16
2022-11-26T17:59:44.830Z,54.88
2022-11-26T18:02:12.268Z,55.01
2022-11-26T18:04:39.630Z,54.66
2022-11-26T18:07:13.021Z,54.67
2022-11-26T18:09:41.659Z,54.60
2022-11-26T18:12:24.933Z,54.70
2022-11-26T18:14:57.494Z,54.25
2022-11-26T18:17:25.480Z,54.34
2022-11-26T18:19:52.726Z,54.42
2022-11-26T18:22:24.942Z,54.40
2022-11-26T18:24:56.520Z,54.83
2022-11-26T18:27:29.517Z,54.66
2022-11-26T18:29:56.837Z,54.33
2022-11-26T18:32:24.896Z,54.15
2022-11-26T18:34:52.449Z,54.14
2022-11-26T18:37:19.706Z,54.60
2022-11-26T18:39:47.141Z,54.54
2022-11-26T18:42:37.017Z,54.91
2022-11-26T18:45:01.835Z,54.52
2022-11-26T18:47:29.063Z,54.78
2022-11-26T18:49:56.179Z,54.49
2022-11-26T18:52:23.361Z,54.97
2022-11-26T18:54:50.576Z,54.92
2022-11-26T18:57:17.851Z,54.88
2022-11-26T18:59:44.985Z,54.69
2022-11-26T19:02:12.321Z,54.60
2022-11-26T19:04:39.583Z,54.49
2022-11-26T19:07:07.283Z,54.63
2022-11-26T19:09:34.526Z,54.99
2022-11-26T19:12:01.749Z,54.97
2022-11-26T19:14:29.055Z,54.76
2022-11-26T19:16:56.234Z,54.56
2022-11-26T19:19:23.429Z,54.88
2022-11-26T19:21:50.626Z,54.92
2022-11-26T19:24:17.849Z,54.86
2022-11-26T19:26:45.060Z,54.63
2022-11-26T19:29:12.994Z,54.80
2022-11-26T19:31:40.648Z,54.63
2022-11-26T19:34:13.691Z,54.38
2022-11-26T19:36:41.215Z,54.42
2022-11-26T19:39:08.797Z,54.40
2022-11-26T19:41:36.158Z,54.48
2022-11-26T19:44:03.470Z,54.59
2022-11-26T19:46:31.262Z,54.82
2022-11-26T19:48:58.460Z,54.84
2022-11-26T19:51:26.634Z,54.47
2022-11-26T19:53:56.002Z,54.60
2022-11-26T19:56:30.211Z,54.70
2022-11-26T19:58:58.187Z,54.72
2022-11-26T20:01:27.122Z,54.59
2022-11-26T20:03:54.432Z,54.73
2022-11-26T20:06:27.008Z,54.64
2022-11-26T20:08:56.225Z,54.69
2022-11-26T20:11:23.799Z,54.82
2022-11-26T20:13:51.684Z,54.82
2022-11-26T20:16:31.509Z,54.46
2022-11-26T20:19:01.322Z,54.38
2022-11-26T20:21:31.390Z,54.24
2022-11-26T20:24:02.866Z,54.23
2022-11-26T20:26:37.073Z,54.46
2022-11-26T20:29:14.867Z,54.57
2022-11-26T20:31:49.249Z,54.33
2022-11-26T20:34:20.601Z,54.70
2022-11-26T20:36:48.632Z,54.47
2022-11-26T20:39:20.181Z,54.72
2022-11-26T20:41:48.306Z,54.40
2022-11-26T20:44:15.813Z,54.46
2022-11-26T20:46:43.412Z,54.19
2022-11-26T20:49:11.360Z,54.65
2022-11-26T20:51:39.126Z,54.61
2022-11-26T20:54:06.398Z,54.55
2022-11-26T20:56:33.883Z,54.52
2022-11-26T20:59:02.019Z,54.73
2022-11-26T21:01:30.248Z,54.69
2022-11-26T21:03:58.429Z,54.52
2022-11-26T21:06:29.916Z,54.69
2022-11-26T21:09:00.885Z,54.68
2022-11-26T21:11:28.790Z,54.68
2022-11-26T21:13:58.292Z,54.85
2022-11-26T21:16:25.612Z,54.97
2022-11-26T21:18:54.156Z,54.58
2022-11-26T21:21:22.480Z,54.39
2022-11-26T21:23:49.743Z,54.69
2022-11-26T21:26:21.156Z,54.48
2022-11-26T21:28:55.379Z,54.43
2022-11-26T21:31:23.692Z,54.48
2022-11-26T21:34:06.029Z,54.51
2022-11-26T21:36:36.092Z,54.51
2022-11-26T21:39:05.031Z,54.47
2022-11-26T21:41:32.175Z,54.60
2022-11-26T21:43:59.835Z,54.39
2022-11-26T21:46:27.662Z,54.76
2022-11-26T21:48:57.051Z,54.74
2022-11-26T21:51:27.242Z,54.64
2022-11-26T21:53:56.071Z,54.94
2022-11-26T21:56:26.970Z,54.58
2022-11-26T21:58:56.281Z,54.71
2022-11-26T22:01:36.285Z,54.86
2022-11-26T22:04:21.872Z,54.70
2022-11-26T22:06:49.356Z,54.36
2022-11-26T22:09:17.208Z,54.45
2022-11-26T22:11:45.886Z,54.65
2022-11-26T22:14:17.113Z,54.41
2022-11-26T22:16:44.582Z,54.59
2022-11-26T22:19:11.708Z,54.57
2022-11-26T22:21:42.013Z,54.46
2022-11-26T22:24:15.981Z,54.52
2022-11-26T22:26:44.433Z,54.34
2022-11-26T22:29:14.612Z,54.77
2022-11-26T22:31:42.804Z,54.48
2022-11-26T22:34:16.301Z,54.74
2022-11-26T22:36:45.050Z,54.48
2022-11-26T22:39:15.472Z,54.21
2022-11-26T22:41:45.078Z,54.56
2022-11-26T22:44:14.486Z,54.58
2022-11-26T22:46:42.090Z,54.43
2022-11-26T22:49:16.827Z,54.58
2022-11-26T22:51:44.336Z,54.92
2022-11-26T22:54:15.231Z,54.80
2022-11-26T22:56:42.500Z,54.74
2022-11-26T22:59:13.935Z,54.53
2022-11-26T23:01:41.879Z,54.50
2022-11-26T23:04:10.664Z,54.31
2022-11-26T23:06:39.422Z,54.43
2022-11-26T23:09:08.933Z,54.35
2022-11-26T23:11:41.689Z,54.52
2022-11-26T23:14:10.183Z,54.47
2022-11-26T23:16:41.217Z,54.32
2022-11-26T23:19:09.262Z,54.28
2022-11-26T23:21:40.150Z,54.31
2022-11-26T23:24:08.463Z,54.49
2022-11-26T23:26:38.281Z,54.52
2022-11-26T23:29:07.271Z,54.28
2022-11-26T23:31:38.412Z,54.09
2022-11-26T23:34:06.516Z,54.09
2022-11-26T23:36:35.571Z,54.13
2022-11-26T23:39:05.916Z,54.03
2022-11-26T23:41:33.126Z,54.09
2022-11-26T23:44:00.279Z,54.54
2022-11-26T23:46:32.796Z,54.28
2022-11-26T23:48:59.974Z,53.96
2022-11-26T23:51:30.837Z,53.77
2022-11-26T23:53:58.278Z,53.98
2022-11-26T23:56:29.925Z,53.98
2022-11-26T23:59:01.087Z,54.45
